This is the latest recevied weather packets stored in our database for station/object N2OCK. If no packets are shown the sender has not sent any weather packets the latest 10 day(s).
| Time | Temp. | Humidity | Pressure | Rain* | Wind** | Luminosity | Snow |
|---|---|---|---|---|---|---|---|
| 1777869959 | 8.33° C | 62% | 1012.8 hPa | 0 mm | - | 0 W/m² | - |
| 1777869655 | 8.33° C | 62% | 1012.5 hPa | 0 mm | - | 0 W/m² | - |
| 1777869353 | 7.22° C | 63% | 1012.7 hPa | 0 mm | - | 0 W/m² | - |
| 1777869050 | 6.67° C | 67% | 1012.6 hPa | 0 mm | - | 0 W/m² | - |
| 1777868747 | 6.67° C | 66% | 1012.8 hPa | 0 mm | - | 0 W/m² | - |
| 1777868444 | 6.67° C | 65% | 1012.6 hPa | 0 mm | - | 0 W/m² | - |
| 1777868139 | 7.22° C | 63% | 1012.6 hPa | 0 mm | - | 0 W/m² | - |
| 1777867836 | 7.22° C | 62% | 1012.5 hPa | 0 mm | - | 0 W/m² | - |
| 1777867534 | 7.22° C | 62% | 1012.5 hPa | 0 mm | - | 0 W/m² | - |
| 1777867230 | 7.78° C | 61% | 1012.7 hPa | 0 mm | - | 0 W/m² | - |
| 1777866927 | 7.78° C | 59% | 1012.6 hPa | 0 mm | - | 0 W/m² | - |
| 1777866623 | 8.33° C | 57% | 1012.7 hPa | 0 mm | - | 0 W/m² | - |
| 1777866321 | 7.78° C | 57% | 1012.6 hPa | 0 mm | - | 0 W/m² | - |
| 1777866018 | 7.22° C | 59% | 1012.5 hPa | 0 mm | - | 0 W/m² | - |
| 1777865716 | 6.67° C | 64% | 1012.5 hPa | 0 mm | - | 0 W/m² | - |
| 1777865413 | 6.11° C | 66% | 1012.6 hPa | 0 mm | - | 0 W/m² | - |
| 1777865110 | 6.67° C | 65% | 1012.5 hPa | 0 mm | - | 0 W/m² | - |
| 1777864806 | 6.67° C | 65% | 1012.4 hPa | 0 mm | - | 0 W/m² | - |
| 1777864503 | 6.67° C | 64% | 1012.5 hPa | 0 mm | - | 0 W/m² | - |
| 1777864200 | 6.67° C | 63% | 1012.4 hPa | 0 mm | - | 0 W/m² | - |
| 1777863897 | 6.67° C | 62% | 1012.4 hPa | 0 mm | - | 0 W/m² | - |
| 1777863593 | 7.22° C | 59% | 1012.6 hPa | 0 mm | - | 0 W/m² | - |
| 1777863290 | 7.22° C | 60% | 1012.4 hPa | 0 mm | - | 0 W/m² | - |
| 1777862987 | 7.78° C | 59% | 1012.4 hPa | 0 mm | - | 0 W/m² | - |
| 1777862684 | 7.22° C | 58% | 1012.4 hPa | 0 mm | - | 0 W/m² | - |
* Rain latest hour (hover to see other rain measurements)
** Current wind speed in m/s (hover to see current wind gust speed)